createdAt,value
2022-08-11T00:01:01.257Z,2.65
2022-08-11T00:03:43.561Z,2.50
2022-08-11T00:06:11.291Z,2.92
2022-08-11T00:08:38.504Z,3.22
2022-08-11T00:11:06.085Z,3.10
2022-08-11T00:13:33.328Z,3.30
2022-08-11T00:16:00.797Z,3.15
2022-08-11T00:18:28.109Z,3.28
2022-08-11T00:20:55.460Z,3.00
2022-08-11T00:23:22.657Z,2.60
2022-08-11T00:25:49.894Z,2.40
2022-08-11T00:28:17.166Z,2.80
2022-08-11T00:30:44.427Z,3.00
2022-08-11T00:33:11.668Z,3.17
2022-08-11T00:35:51.760Z,3.17
2022-08-11T00:38:23.712Z,2.95
2022-08-11T00:40:50.934Z,3.35
2022-08-11T00:43:20.075Z,3.13
2022-08-11T00:45:48.132Z,2.95
2022-08-11T00:48:15.460Z,2.97
2022-08-11T00:50:42.758Z,3.30
2022-08-11T00:53:09.974Z,3.35
2022-08-11T00:55:37.339Z,3.70
2022-08-11T00:58:04.558Z,3.15
2022-08-11T01:00:32.050Z,3.38
2022-08-11T01:02:59.454Z,2.90
2022-08-11T01:05:27.297Z,3.25
2022-08-11T01:08:01.261Z,3.17
2022-08-11T01:10:30.784Z,3.17
2022-08-11T01:12:57.982Z,3.50
2022-08-11T01:15:25.341Z,3.25
2022-08-11T01:17:52.906Z,3.17
2022-08-11T01:20:47.639Z,3.63
2022-08-11T01:23:07.632Z,3.58
2022-08-11T01:25:57.232Z,2.85
2022-08-11T01:28:25.120Z,3.72
2022-08-11T01:30:54.220Z,2.95
2022-08-11T01:33:21.659Z,3.30
2022-08-11T01:35:48.905Z,3.70
2022-08-11T01:38:16.173Z,4.63
2022-08-11T01:40:43.377Z,3.72
2022-08-11T01:43:29.699Z,3.78
2022-08-11T01:45:56.933Z,3.10
2022-08-11T01:48:24.124Z,3.75
2022-08-11T01:50:51.635Z,3.10
2022-08-11T01:53:18.846Z,3.70
2022-08-11T01:55:46.089Z,3.88
2022-08-11T01:58:13.303Z,3.85
2022-08-11T02:00:43.568Z,4.28
2022-08-11T02:03:10.816Z,4.20
2022-08-11T02:05:38.074Z,5.35
2022-08-11T02:08:05.270Z,4.95
2022-08-11T02:10:53.088Z,5.30
2022-08-11T02:13:33.431Z,6.05
2022-08-11T02:16:03.204Z,5.15
2022-08-11T02:18:50.354Z,5.30
2022-08-11T02:21:36.328Z,5.57
2022-08-11T02:24:05.419Z,5.32
2022-08-11T02:26:34.704Z,4.88
2022-08-11T02:29:02.028Z,5.20
2022-08-11T02:32:24.094Z,5.40
2022-08-11T02:37:02.357Z,4.55
2022-08-11T02:39:30.070Z,4.65
2022-08-11T02:42:34.882Z,5.05
2022-08-11T02:45:03.493Z,4.72
2022-08-11T02:47:30.706Z,5.20
2022-08-11T02:50:06.526Z,4.60
2022-08-11T02:52:35.044Z,4.97
2022-08-11T02:55:02.261Z,5.32
2022-08-11T02:57:29.550Z,5.63
2022-08-11T02:59:56.769Z,5.00
2022-08-11T03:02:24.709Z,4.43
2022-08-11T03:04:51.897Z,4.93
2022-08-11T03:07:29.112Z,4.95
2022-08-11T03:09:56.981Z,3.92
2022-08-11T03:12:43.097Z,4.53
2022-08-11T03:15:29.184Z,5.13
2022-08-11T03:17:56.454Z,6.05
2022-08-11T03:20:24.093Z,4.75
2022-08-11T03:22:51.378Z,5.10
2022-08-11T03:25:18.585Z,4.20
2022-08-11T03:27:45.858Z,4.20
2022-08-11T03:30:13.096Z,4.15
2022-08-11T03:32:41.040Z,4.82
2022-08-11T03:35:08.261Z,3.80
2022-08-11T03:37:50.989Z,3.83
2022-08-11T03:40:38.201Z,4.28
2022-08-11T03:43:05.877Z,4.35
2022-08-11T03:45:36.245Z,4.35
2022-08-11T03:48:06.669Z,5.55
2022-08-11T03:50:33.921Z,6.20
2022-08-11T03:53:01.135Z,5.40
2022-08-11T03:55:28.474Z,4.78
2022-08-11T03:57:55.683Z,5.13
2022-08-11T04:00:22.980Z,5.80
2022-08-11T04:02:50.202Z,5.68
2022-08-11T04:05:17.478Z,5.40
2022-08-11T04:07:44.812Z,5.10
2022-08-11T04:10:12.176Z,5.43
2022-08-11T04:12:41.233Z,5.07
2022-08-11T04:15:30.280Z,5.40
2022-08-11T04:17:57.800Z,5.20
2022-08-11T04:20:24.991Z,5.53
2022-08-11T04:22:52.252Z,5.35
2022-08-11T04:25:19.532Z,5.13
2022-08-11T04:27:47.711Z,5.20
2022-08-11T04:30:16.793Z,5.15
2022-08-11T04:32:44.078Z,5.75
2022-08-11T04:35:11.345Z,5.82
2022-08-11T04:37:38.635Z,6.43
2022-08-11T04:40:05.897Z,6.18
2022-08-11T04:42:51.842Z,5.28
2022-08-11T04:45:19.121Z,6.05
2022-08-11T04:48:05.218Z,6.53
2022-08-11T04:51:08.577Z,6.25
2022-08-11T05:01:56.754Z,5.35
2022-08-11T05:04:42.821Z,5.40
2022-08-11T05:07:10.077Z,6.05
2022-08-11T05:09:37.307Z,6.20
2022-08-11T05:12:04.637Z,6.20
2022-08-11T05:14:50.611Z,5.68
2022-08-11T05:17:36.857Z,5.93
2022-08-11T05:20:23.197Z,5.82
2022-08-11T05:23:29.290Z,9.05
2022-08-11T05:26:47.780Z,13.57
2022-08-11T05:29:21.140Z,15.02
2022-08-11T05:32:07.052Z,12.90
2022-08-11T05:34:53.000Z,7.38
2022-08-11T05:37:28.054Z,7.13
2022-08-11T05:40:14.277Z,10.43
2022-08-11T05:43:00.480Z,11.82
2022-08-11T05:45:58.284Z,12.05
2022-08-11T05:48:50.467Z,12.63
2022-08-11T05:51:36.527Z,12.13
2022-08-11T05:54:29.365Z,15.98
2022-08-11T05:56:57.018Z,15.70
2022-08-11T05:59:24.246Z,14.68
2022-08-11T06:01:51.585Z,14.75
2022-08-11T06:04:18.996Z,11.90
2022-08-11T06:06:47.142Z,13.98
2022-08-11T06:09:14.518Z,16.25
2022-08-11T06:11:44.219Z,16.13
2022-08-11T06:14:12.144Z,16.27
2022-08-11T06:16:39.361Z,15.95
2022-08-11T06:19:06.664Z,16.05
2022-08-11T06:21:33.896Z,17.55
2022-08-11T06:24:01.192Z,16.90
2022-08-11T06:26:28.412Z,16.80
2022-08-11T06:28:56.060Z,15.98
2022-08-11T06:31:26.342Z,13.98
2022-08-11T06:33:53.670Z,14.52
2022-08-11T06:36:20.966Z,15.25
2022-08-11T06:38:48.349Z,13.70
2022-08-11T06:41:30.963Z,16.38
2022-08-11T06:44:00.894Z,16.90
2022-08-11T06:46:32.077Z,15.80
2022-08-11T06:48:59.311Z,17.45
2022-08-11T06:51:26.607Z,12.73
2022-08-11T06:54:04.528Z,12.65
2022-08-11T06:57:06.381Z,13.93
2022-08-11T06:59:57.527Z,11.18
2022-08-11T07:02:30.975Z,12.88
2022-08-11T07:05:00.873Z,12.05
2022-08-11T07:07:46.794Z,9.65
2022-08-11T07:10:32.958Z,12.90
2022-08-11T07:13:45.112Z,12.70
2022-08-11T07:16:14.161Z,12.57
2022-08-11T07:19:00.236Z,11.30
2022-08-11T07:22:01.010Z,11.13
2022-08-11T07:24:59.502Z,11.73
2022-08-11T07:27:48.919Z,12.65
2022-08-11T07:30:16.230Z,11.65
2022-08-11T07:32:43.450Z,10.93
2022-08-11T07:35:13.249Z,11.82
2022-08-11T07:37:40.696Z,11.52
2022-08-11T07:40:07.958Z,11.43
2022-08-11T07:42:38.504Z,13.82
2022-08-11T07:45:24.818Z,12.45
2022-08-11T07:48:10.808Z,10.98
2022-08-11T07:50:57.594Z,11.70
2022-08-11T07:53:25.065Z,11.85
2022-08-11T07:55:53.504Z,12.30
2022-08-11T07:58:52.329Z,12.27
2022-08-11T08:01:39.610Z,12.05
2022-08-11T08:04:25.963Z,12.82
2022-08-11T08:07:11.938Z,11.63
2022-08-11T08:09:58.277Z,11.15
2022-08-11T08:12:44.314Z,10.38
2022-08-11T08:15:30.430Z,12.32
2022-08-11T08:18:20.556Z,13.35
2022-08-11T08:20:45.661Z,11.90
2022-08-11T08:23:13.143Z,9.70
2022-08-11T08:25:40.547Z,11.77
2022-08-11T08:28:08.002Z,9.07
2022-08-11T08:30:47.616Z,7.35
2022-08-11T08:33:15.091Z,10.68
2022-08-11T08:35:55.827Z,8.15
2022-08-11T08:38:23.340Z,10.18
2022-08-11T08:40:50.549Z,8.90
2022-08-11T08:43:18.418Z,8.65
2022-08-11T08:45:45.907Z,8.82
2022-08-11T08:48:13.318Z,8.48
2022-08-11T08:50:59.372Z,7.97
2022-08-11T08:53:29.626Z,7.78
2022-08-11T08:55:56.947Z,8.65
2022-08-11T08:58:24.205Z,7.75
2022-08-11T09:00:51.554Z,8.20
2022-08-11T09:06:07.014Z,7.68
2022-08-11T09:08:35.191Z,9.48
2022-08-11T09:11:21.315Z,8.45
2022-08-11T09:14:03.231Z,9.25
2022-08-11T09:16:34.069Z,7.30
2022-08-11T09:19:01.325Z,7.22
2022-08-11T09:21:44.597Z,8.18
2022-08-11T09:24:34.912Z,6.85
2022-08-11T09:27:04.016Z,6.60
2022-08-11T09:29:31.458Z,5.60
2022-08-11T09:31:58.694Z,5.57
2022-08-11T09:34:26.499Z,6.32
2022-08-11T09:37:12.433Z,5.75
2022-08-11T09:39:58.589Z,6.07
2022-08-11T09:42:49.231Z,5.30
2022-08-11T09:45:16.480Z,5.40
2022-08-11T09:47:44.953Z,5.60
2022-08-11T09:50:12.263Z,5.63
2022-08-11T09:52:48.261Z,5.50
2022-08-11T09:55:24.603Z,4.97
2022-08-11T09:58:10.597Z,5.50
2022-08-11T10:00:38.126Z,4.80
2022-08-11T10:03:07.171Z,5.18
2022-08-11T10:05:53.386Z,4.38
2022-08-11T10:08:20.756Z,4.38
2022-08-11T10:10:48.079Z,4.38
2022-08-11T10:14:30.651Z,4.38
2022-08-11T10:16:15.394Z,4.35
2022-08-11T10:18:53.541Z,4.10
2022-08-11T10:21:20.920Z,3.25
2022-08-11T10:24:14.520Z,3.95
2022-08-11T10:27:00.686Z,3.53
2022-08-11T10:29:50.201Z,3.10
2022-08-11T10:32:37.843Z,3.28
2022-08-11T10:35:27.696Z,2.65
2022-08-11T10:38:15.793Z,2.80
2022-08-11T10:40:42.236Z,2.90
2022-08-11T10:44:01.896Z,2.67
2022-08-11T10:46:35.563Z,3.28
2022-08-11T10:49:02.840Z,2.50
2022-08-11T10:51:50.918Z,2.53
2022-08-11T10:54:38.144Z,2.80
2022-08-11T10:57:24.222Z,2.10
2022-08-11T10:59:52.362Z,2.50
2022-08-11T11:02:19.570Z,1.85
2022-08-11T11:04:50.412Z,2.20
2022-08-11T11:07:19.940Z,2.47
2022-08-11T11:09:47.192Z,2.03
2022-08-11T11:12:33.370Z,2.00
2022-08-11T11:15:19.687Z,1.90
2022-08-11T11:17:56.260Z,1.98
2022-08-11T11:20:36.039Z,1.90
2022-08-11T11:23:04.957Z,1.73
2022-08-11T11:25:32.304Z,1.55
2022-08-11T11:27:59.667Z,1.60
2022-08-11T11:30:27.206Z,2.25
2022-08-11T11:32:54.975Z,1.58
2022-08-11T11:35:23.882Z,2.47
2022-08-11T11:38:03.410Z,1.52
2022-08-11T11:40:32.378Z,2.17
2022-08-11T11:42:59.765Z,1.63
2022-08-11T11:45:27.082Z,1.90
2022-08-11T11:47:54.390Z,1.42
2022-08-11T11:50:24.076Z,1.77
2022-08-11T11:52:54.575Z,1.77
2022-08-11T11:58:08.908Z,1.67
2022-08-11T12:01:02.073Z,1.75
2022-08-11T12:03:29.418Z,1.70
2022-08-11T12:05:56.888Z,1.30
2022-08-11T12:08:27.583Z,1.63
2022-08-11T12:11:14.034Z,1.63
2022-08-11T12:13:41.330Z,1.55
2022-08-11T12:16:34.259Z,2.00
2022-08-11T12:18:56.592Z,2.03
2022-08-11T12:21:23.851Z,1.58
2022-08-11T12:24:10.263Z,1.48
2022-08-11T12:27:15.966Z,1.52
2022-08-11T12:29:39.835Z,1.50
2022-08-11T12:32:10.994Z,2.20
2022-08-11T12:34:38.241Z,1.38
2022-08-11T12:37:13.694Z,1.80
2022-08-11T12:40:16.552Z,1.23
2022-08-11T12:43:20.709Z,1.13
2022-08-11T12:45:49.493Z,1.10
2022-08-11T12:49:01.272Z,1.20
2022-08-11T12:52:12.143Z,1.20
2022-08-11T12:54:29.061Z,1.10
2022-08-11T12:57:15.199Z,1.08
2022-08-11T13:00:10.303Z,1.25
2022-08-11T13:02:56.501Z,1.20
2022-08-11T13:05:23.809Z,1.50
2022-08-11T13:07:51.534Z,1.10
2022-08-11T13:10:39.236Z,1.50
2022-08-11T13:13:06.567Z,1.25
2022-08-11T13:15:54.007Z,1.83
2022-08-11T13:18:23.834Z,1.33
2022-08-11T13:20:51.306Z,1.92
2022-08-11T13:23:18.626Z,1.70
2022-08-11T13:25:46.035Z,1.50
2022-08-11T13:28:13.285Z,1.13
2022-08-11T13:30:59.575Z,1.45
2022-08-11T13:33:27.007Z,1.40
2022-08-11T13:35:56.018Z,1.50
2022-08-11T13:38:23.746Z,1.52
2022-08-11T13:40:55.999Z,1.20
2022-08-11T13:43:23.664Z,1.70
2022-08-11T13:45:53.051Z,1.70
2022-08-11T13:48:20.634Z,1.50
2022-08-11T13:51:06.724Z,1.42
2022-08-11T13:53:35.237Z,1.30
2022-08-11T13:56:03.890Z,1.52
2022-08-11T13:58:40.152Z,1.25
2022-08-11T14:02:20.120Z,1.30
2022-08-11T14:04:29.133Z,1.25
2022-08-11T14:06:46.230Z,1.50
2022-08-11T14:09:14.581Z,1.25
2022-08-11T14:12:23.441Z,1.40
2022-08-11T14:14:47.881Z,1.20
2022-08-11T14:17:47.131Z,1.30
2022-08-11T14:20:02.527Z,1.50
2022-08-11T14:22:49.803Z,1.35
2022-08-11T14:25:17.088Z,2.20
2022-08-11T14:28:29.527Z,2.00
2022-08-11T14:30:50.686Z,1.20
2022-08-11T14:33:20.261Z,1.45
2022-08-11T14:35:48.849Z,3.20
2022-08-11T14:38:17.836Z,1.30
2022-08-11T14:41:04.123Z,1.25
2022-08-11T14:44:13.703Z,1.60
2022-08-11T14:46:56.093Z,1.55
2022-08-11T14:49:23.393Z,1.85
2022-08-11T14:51:53.728Z,1.77
2022-08-11T14:54:39.952Z,2.13
2022-08-11T14:57:07.322Z,2.17
2022-08-11T14:59:34.732Z,1.85
2022-08-11T15:02:20.867Z,1.80
2022-08-11T15:04:48.147Z,1.58
2022-08-11T15:07:17.319Z,1.50
2022-08-11T15:10:09.875Z,1.60
2022-08-11T15:12:33.553Z,1.60
2022-08-11T15:15:20.086Z,2.35
2022-08-11T15:17:49.397Z,1.38
2022-08-11T15:20:35.737Z,1.52
2022-08-11T15:23:21.926Z,1.70
2022-08-11T15:25:49.267Z,1.45
2022-08-11T15:28:35.288Z,1.77
2022-08-11T15:31:21.457Z,1.40
2022-08-11T15:34:07.689Z,1.30
2022-08-11T15:36:53.768Z,1.60
2022-08-11T15:39:21.238Z,1.55
2022-08-11T15:42:07.407Z,1.27
2022-08-11T15:45:03.213Z,1.77
2022-08-11T15:47:30.936Z,1.70
2022-08-11T15:50:10.673Z,2.33
2022-08-11T15:52:40.567Z,1.80
2022-08-11T15:55:08.637Z,1.58
2022-08-11T15:57:54.997Z,1.85
2022-08-11T16:00:41.315Z,1.73
2022-08-11T16:04:06.816Z,2.08
2022-08-11T16:06:14.569Z,1.70
2022-08-11T16:08:42.725Z,1.70
2022-08-11T16:11:11.875Z,1.58
2022-08-11T16:13:42.170Z,1.70
2022-08-11T16:16:15.510Z,1.38
2022-08-11T16:18:43.030Z,2.10
2022-08-11T16:21:10.258Z,1.80
2022-08-11T16:23:57.947Z,2.65
2022-08-11T16:27:10.129Z,1.63
2022-08-11T16:29:12.565Z,1.95
2022-08-11T16:31:39.796Z,2.50
2022-08-11T16:34:27.139Z,1.77
2022-08-11T16:37:13.355Z,1.80
2022-08-11T16:39:40.988Z,1.77
2022-08-11T16:43:08.477Z,1.73
2022-08-11T16:45:35.224Z,1.80
2022-08-11T16:48:37.573Z,1.83
2022-08-11T16:50:50.081Z,1.63
2022-08-11T16:53:17.672Z,1.33
2022-08-11T16:55:51.944Z,1.60
2022-08-11T16:58:39.003Z,1.70
2022-08-11T17:01:06.364Z,1.92
2022-08-11T17:03:52.407Z,1.67
2022-08-11T17:06:38.559Z,1.88
2022-08-11T17:09:24.990Z,1.77
2022-08-11T17:12:11.138Z,1.58
2022-08-11T17:14:38.410Z,1.50
2022-08-11T17:17:05.644Z,1.73
2022-08-11T17:20:41.139Z,1.98
2022-08-11T17:22:39.100Z,1.90
2022-08-11T17:25:06.398Z,1.50
2022-08-11T17:27:33.660Z,1.58
2022-08-11T17:30:00.966Z,1.67
2022-08-11T17:32:56.166Z,1.50
2022-08-11T17:35:34.314Z,1.50
2022-08-11T17:38:04.046Z,1.90
2022-08-11T17:40:31.330Z,1.35
2022-08-11T17:43:17.506Z,2.13
2022-08-11T17:46:03.717Z,1.80
2022-08-11T17:48:31.215Z,1.50
2022-08-11T17:50:59.274Z,1.42
2022-08-11T17:54:10.240Z,1.77
2022-08-11T17:56:54.028Z,1.63
2022-08-11T17:59:40.473Z,1.63
2022-08-11T18:02:35.304Z,1.60
2022-08-11T18:05:02.714Z,1.90
2022-08-11T18:07:49.030Z,2.05
2022-08-11T18:10:39.908Z,1.92
2022-08-11T18:13:26.242Z,1.65
2022-08-11T18:16:12.598Z,1.90
2022-08-11T18:18:58.689Z,1.85
2022-08-11T18:21:44.676Z,1.70
2022-08-11T18:24:30.872Z,2.10
2022-08-11T18:27:17.199Z,2.28
2022-08-11T18:30:08.083Z,1.92
2022-08-11T18:33:09.143Z,1.88
2022-08-11T18:36:00.330Z,1.75
2022-08-11T18:38:47.377Z,1.85
2022-08-11T18:41:33.447Z,1.65
2022-08-11T18:44:19.585Z,1.80
2022-08-11T18:47:05.966Z,1.80
2022-08-11T18:50:03.577Z,1.98
2022-08-11T18:52:51.446Z,2.17
2022-08-11T18:55:37.618Z,1.80
2022-08-11T18:58:23.776Z,1.77
2022-08-11T19:01:09.986Z,1.88
2022-08-11T19:03:56.071Z,2.17
2022-08-11T19:06:56.836Z,1.95
2022-08-11T19:09:42.833Z,2.03
2022-08-11T19:12:29.059Z,1.67
2022-08-11T19:15:15.278Z,1.92
2022-08-11T19:18:01.357Z,1.77
2022-08-11T19:20:47.528Z,1.73
2022-08-11T19:23:33.746Z,1.83
2022-08-11T19:26:20.188Z,2.45
2022-08-11T19:29:06.548Z,1.70
2022-08-11T19:31:52.753Z,3.55
2022-08-11T19:34:38.870Z,2.15
2022-08-11T19:37:25.559Z,1.70
2022-08-11T19:40:11.908Z,1.90
2022-08-11T19:42:58.053Z,1.80
2022-08-11T19:45:50.372Z,1.80
2022-08-11T19:48:39.129Z,2.05
2022-08-11T19:51:25.243Z,2.10
2022-08-11T19:54:11.286Z,1.75
2022-08-11T19:56:57.455Z,2.33
2022-08-11T19:59:43.862Z,2.10
2022-08-11T20:02:30.081Z,1.80
2022-08-11T20:05:16.498Z,1.83
2022-08-11T20:08:02.613Z,1.92
2022-08-11T20:10:48.701Z,1.80
2022-08-11T20:13:34.742Z,1.85
2022-08-11T20:16:21.078Z,2.13
2022-08-11T20:19:07.159Z,2.45
2022-08-11T20:21:53.312Z,2.30
2022-08-11T20:24:39.470Z,2.25
2022-08-11T20:27:25.701Z,1.85
2022-08-11T20:30:11.856Z,1.75
2022-08-11T20:32:58.156Z,2.10
2022-08-11T20:35:44.190Z,2.00
2022-08-11T20:38:30.205Z,2.40
2022-08-11T20:41:16.548Z,2.40
2022-08-11T20:44:06.337Z,1.90
2022-08-11T20:46:55.282Z,2.92
2022-08-11T20:49:47.754Z,2.20
2022-08-11T20:52:40.272Z,2.28
2022-08-11T20:55:51.663Z,2.17
2022-08-11T20:59:01.035Z,2.17
2022-08-11T21:04:54.270Z,2.88
2022-08-11T21:07:41.831Z,2.25
2022-08-11T21:10:28.153Z,3.47
2022-08-11T21:13:26.223Z,2.03
2022-08-11T21:16:25.691Z,2.53
2022-08-11T21:19:12.891Z,2.70
2022-08-11T21:21:58.886Z,2.80
2022-08-11T21:24:46.878Z,2.17
2022-08-11T21:27:34.257Z,2.38
2022-08-11T21:30:20.427Z,2.40
2022-08-11T21:33:06.693Z,2.35
2022-08-11T21:35:52.880Z,2.35
2022-08-11T21:38:38.986Z,2.20
2022-08-11T21:41:25.007Z,2.22
2022-08-11T21:44:11.263Z,2.40
2022-08-11T21:46:57.584Z,2.72
2022-08-11T21:49:43.951Z,2.35
2022-08-11T21:52:30.230Z,3.00
2022-08-11T21:55:16.467Z,3.10
2022-08-11T21:58:02.870Z,3.20
2022-08-11T22:00:49.045Z,2.95
2022-08-11T22:03:41.077Z,2.80
2022-08-11T22:06:36.634Z,3.22
2022-08-11T22:09:22.586Z,2.92
2022-08-11T22:12:29.760Z,3.45
2022-08-11T22:15:14.892Z,3.03
2022-08-11T22:18:01.112Z,2.70
2022-08-11T22:20:47.414Z,2.85
2022-08-11T22:23:35.811Z,2.83
2022-08-11T22:26:22.634Z,3.00
2022-08-11T22:29:08.946Z,3.08
2022-08-11T22:31:55.100Z,3.33
2022-08-11T22:34:53.121Z,3.22
2022-08-11T22:37:39.742Z,2.70
2022-08-11T22:40:26.021Z,4.50
2022-08-11T22:43:12.102Z,2.72
2022-08-11T22:45:58.372Z,3.50
2022-08-11T22:48:44.707Z,3.05
2022-08-11T22:51:30.836Z,3.22
2022-08-11T22:54:16.905Z,3.58
2022-08-11T22:57:02.914Z,3.83
2022-08-11T22:59:49.006Z,3.83
2022-08-11T23:02:35.134Z,3.85
2022-08-11T23:05:21.213Z,5.00
2022-08-11T23:08:07.335Z,3.42
2022-08-11T23:10:53.511Z,3.97
2022-08-11T23:13:39.536Z,3.80
2022-08-11T23:16:25.804Z,3.55
2022-08-11T23:19:11.966Z,3.78
2022-08-11T23:21:58.323Z,3.83
2022-08-11T23:24:44.962Z,4.32
2022-08-11T23:27:31.098Z,3.88
2022-08-11T23:30:18.784Z,3.75
2022-08-11T23:33:05.049Z,3.72
2022-08-11T23:35:56.614Z,3.65
2022-08-11T23:38:46.068Z,4.37
2022-08-11T23:41:32.171Z,3.13
2022-08-11T23:44:18.333Z,3.53
2022-08-11T23:47:04.319Z,3.88
2022-08-11T23:49:50.354Z,5.82
2022-08-11T23:52:36.600Z,4.97
2022-08-11T23:55:22.669Z,4.35
2022-08-11T23:58:08.766Z,3.90
